Time;durP1;ratioP1;P1;durP2;ratioP2;P2;SDS_P1;SDS_P2;PMS_P1;PMS_P2;Temp;Humidity;BMP_temperature;BMP_pressure;BME280_temperature;BME280_humidity;BME280_pressure;Samples;Min_cycle;Max_cycle;Signal;HPM_P1;HPM_P2
2023/06/09 00:00:18;;;;;;;10.70;5.90;;;;;;;26.72;37.77;100294.77;108020;1254;73383;-66
2023/06/09 00:02:47;;;;;;;14.20;6.10;;;;;;;26.93;37.58;100289.39;108053;1254;70760;-66
2023/06/09 00:05:15;;;;;;;7.40;5.60;;;;;;;27.40;36.94;100287.58;108061;1254;72851;-67
2023/06/09 00:07:48;;;;;;;7.60;5.70;;;;;;;27.24;37.10;100286.41;108035;1254;61718;-67
2023/06/09 00:10:16;;;;;;;8.70;5.80;;;;;;;27.37;36.94;100285.15;108048;1254;60483;-66
2023/06/09 00:12:47;;;;;;;10.60;6.00;;;;;;;27.38;36.95;100280.61;108024;1254;73925;-67
2023/06/09 00:15:15;;;;;;;11.50;7.00;;;;;;;27.54;36.72;100281.29;108060;1254;70735;-67
2023/06/09 00:17:45;;;;;;;8.30;6.20;;;;;;;27.79;36.42;100278.44;108051;1254;72421;-67
2023/06/09 00:20:15;;;;;;;12.50;6.20;;;;;;;27.25;37.11;100278.96;108040;1255;61728;-67
2023/06/09 00:22:45;;;;;;;11.10;6.90;;;;;;;27.46;36.86;100278.70;108132;1254;60578;-67
2023/06/09 00:25:12;;;;;;;11.90;6.40;;;;;;;27.53;36.74;100274.15;108064;1254;74491;-68
2023/06/09 00:27:40;;;;;;;10.80;5.90;;;;;;;28.37;35.76;100273.95;107878;1256;70149;-66
2023/06/09 00:30:10;;;;;;;14.00;6.70;;;;;;;28.41;35.24;100267.02;107855;1256;72829;-68
2023/06/09 00:32:51;;;;;;;10.90;6.50;;;;;;;28.16;35.71;100269.23;107866;1256;60966;-69
2023/06/09 00:35:19;;;;;;;10.80;6.80;;;;;;;28.19;35.51;100268.66;107943;1256;59194;-67
2023/06/09 00:37:48;;;;;;;7.30;6.60;;;;;;;28.44;35.32;100267.13;107782;1255;73934;-67
2023/06/09 00:40:15;;;;;;;10.60;6.80;;;;;;;28.34;35.38;100267.42;107858;1257;70348;-68
2023/06/09 00:42:43;;;;;;;13.50;7.00;;;;;;;28.55;35.27;100266.76;107751;1261;72416;-68
2023/06/09 00:45:10;;;;;;;12.20;7.10;;;;;;;28.77;34.74;100267.02;107826;1256;60555;-68
2023/06/09 00:47:37;;;;;;;10.40;7.30;;;;;;;28.64;34.95;100264.52;107749;1256;60384;-66
2023/06/09 00:50:05;;;;;;;11.80;8.50;;;;;;;28.30;35.50;100258.51;107729;1255;73798;-66
2023/06/09 00:52:35;;;;;;;15.90;9.70;;;;;;;28.13;35.53;100254.52;107847;1256;69160;-68
2023/06/09 00:55:03;;;;;;;12.70;8.30;;;;;;;28.36;35.46;100254.89;107713;1256;72759;-67
2023/06/09 00:57:33;;;;;;;18.80;9.60;;;;;;;28.35;35.40;100253.08;107635;1257;61670;-68
2023/06/09 01:00:06;;;;;;;11.60;7.60;;;;;;;28.15;35.73;100252.71;107729;1263;58850;-68
2023/06/09 01:02:38;;;;;;;14.30;8.30;;;;;;;28.18;35.77;100249.67;107854;1257;73823;-66
2023/06/09 01:05:06;;;;;;;10.90;8.10;;;;;;;28.10;35.71;100251.09;107872;1256;70301;-66
2023/06/09 01:07:57;;;;;;;12.70;8.20;;;;;;;27.87;36.24;100250.46;107811;1257;72311;-67
2023/06/09 01:10:26;;;;;;;9.60;6.70;;;;;;;28.19;35.62;100251.37;107758;1256;60771;-69
2023/06/09 01:13:02;;;;;;;10.20;7.00;;;;;;;28.18;35.77;100250.45;107718;1261;60286;-67
2023/06/09 01:15:32;;;;;;;9.30;6.70;;;;;;;28.19;35.68;100249.95;107790;1256;74338;-66
2023/06/09 01:18:03;;;;;;;9.90;6.60;;;;;;;28.40;35.29;100250.89;107837;1257;70374;-67
2023/06/09 01:20:52;;;;;;;;;;;;;;;28.37;35.53;100251.55;107878;1256;72692;-67
2023/06/09 01:23:26;;;;;;;9.20;6.10;;;;;;;28.63;35.18;100251.11;107824;1256;60645;-68
2023/06/09 01:25:54;;;;;;;12.60;6.30;;;;;;;28.65;35.04;100249.02;107945;1255;60325;-68
2023/06/09 01:28:23;;;;;;;7.80;6.10;;;;;;;28.51;35.08;100250.59;108024;1254;72550;-68
2023/06/09 01:30:52;;;;;;;9.40;6.30;;;;;;;28.82;34.79;100249.16;108034;1254;69940;-68
2023/06/09 01:33:23;;;;;;;9.40;6.30;;;;;;;28.76;34.72;100250.92;107788;1257;72860;-66
2023/06/09 01:35:54;;;;;;;9.40;6.70;;;;;;;28.40;35.33;100257.00;108098;1257;62062;-68
2023/06/09 01:38:23;;;;;;;11.70;6.40;;;;;;;28.67;35.00;100249.35;108085;1260;60411;-67
2023/06/09 01:40:50;;;;;;;9.70;6.20;;;;;;;28.88;34.42;100247.21;107925;1254;73855;-67
2023/06/09 01:43:22;;;;;;;10.10;5.80;;;;;;;28.89;34.67;100244.70;107948;1254;70739;-68
2023/06/09 01:45:58;;;;;;;8.30;6.60;;;;;;;28.95;34.33;100243.75;107907;1257;72769;-69
2023/06/09 01:48:54;;;;;;;10.10;6.30;;;;;;;28.90;34.48;100242.84;107904;1254;60798;-68
2023/06/09 01:51:26;;;;;;;8.30;5.90;;;;;;;28.73;34.71;100241.48;107907;1254;61125;-68
2023/06/09 01:54:01;;;;;;;8.10;6.00;;;;;;;28.51;35.16;100244.45;107770;1254;73914;-67
2023/06/09 01:56:32;;;;;;;11.00;6.60;;;;;;;28.75;34.78;100242.67;108055;1254;70131;-67
2023/06/09 01:59:01;;;;;;;8.30;6.30;;;;;;;28.80;34.54;100237.58;107793;1257;72707;-68
2023/06/09 02:01:35;;;;;;;10.50;6.60;;;;;;;28.61;34.83;100240.82;107917;1254;60763;-66
2023/06/09 02:04:03;;;;;;;5.20;4.30;;;;;;;28.01;35.90;100241.24;108010;1254;60514;-67
2023/06/09 02:06:32;;;;;;;10.10;6.80;;;;;;;28.29;35.29;100241.66;107948;1254;73916;-67
2023/06/09 02:09:00;;;;;;;8.70;6.20;;;;;;;28.18;35.36;100242.47;107896;1254;69970;-68
2023/06/09 02:11:27;;;;;;;10.60;6.10;;;;;;;28.29;35.35;100245.41;107910;1254;72433;-68
2023/06/09 02:13:55;;;;;;;10.80;6.70;;;;;;;28.02;35.53;100243.45;107961;1254;60442;-67
2023/06/09 02:16:25;;;;;;;11.40;7.10;;;;;;;27.87;35.87;100241.09;107903;1254;59949;-67
2023/06/09 02:18:55;;;;;;;11.90;6.30;;;;;;;27.14;37.07;100247.80;107864;1255;73785;-67
2023/06/09 02:21:23;;;;;;;13.10;7.20;;;;;;;26.62;37.94;100244.88;108028;1254;70374;-68
2023/06/09 02:23:50;;;;;;;9.20;6.30;;;;;;;26.57;37.93;100247.20;108023;1254;72486;-68
2023/06/09 02:26:18;;;;;;;12.00;6.50;;;;;;;26.49;38.23;100249.23;107986;1254;60513;-67
2023/06/09 02:28:47;;;;;;;12.80;7.60;;;;;;;26.12;38.95;100251.95;108051;1254;60162;-68
2023/06/09 02:31:15;;;;;;;10.20;6.60;;;;;;;26.06;39.15;100249.83;108094;1254;73808;-67
2023/06/09 02:33:42;;;;;;;21.50;7.00;;;;;;;26.46;38.38;100248.64;107907;1256;70739;-67
2023/06/09 02:36:12;;;;;;;10.50;6.40;;;;;;;26.66;38.33;100250.20;107977;1256;72756;-67
2023/06/09 02:38:40;;;;;;;14.00;7.10;;;;;;;26.44;38.45;100247.75;107890;1257;60438;-68
2023/06/09 02:41:07;;;;;;;9.90;6.30;;;;;;;26.33;38.65;100248.60;107936;1257;60961;-67
2023/06/09 02:43:34;;;;;;;11.00;6.40;;;;;;;26.48;38.58;100249.25;107894;1256;72260;-66
2023/06/09 02:46:02;;;;;;;12.10;7.20;;;;;;;26.38;38.86;100251.79;107899;1257;70274;-67
2023/06/09 02:48:31;;;;;;;10.40;6.70;;;;;;;26.65;38.57;100252.38;107722;1257;71380;-68
2023/06/09 02:51:01;;;;;;;10.70;6.30;;;;;;;26.85;38.17;100249.86;107854;1257;61613;-67
2023/06/09 02:53:29;;;;;;;10.70;6.00;;;;;;;26.89;38.12;100249.14;107846;1257;60257;-68
2023/06/09 02:56:00;;;;;;;7.40;5.40;;;;;;;26.58;38.67;100255.20;107902;1257;73880;-67
2023/06/09 02:58:33;;;;;;;9.20;6.10;;;;;;;26.89;38.17;100257.89;107780;1256;70163;-67
2023/06/09 03:01:04;;;;;;;10.60;6.70;;;;;;;26.58;38.71;100255.71;107854;1257;71928;-71
2023/06/09 03:03:31;;;;;;;11.10;6.10;;;;;;;26.44;39.09;100257.73;107798;1257;61759;-68
2023/06/09 03:06:01;;;;;;;10.60;6.10;;;;;;;26.47;39.14;100259.05;107872;1257;59404;-68
2023/06/09 03:08:31;;;;;;;12.80;6.90;;;;;;;26.55;39.00;100261.31;107867;1257;72972;-67
2023/06/09 03:10:59;;;;;;;13.50;6.50;;;;;;;26.57;39.08;100261.20;107849;1257;70125;-67
2023/06/09 03:13:27;;;;;;;8.50;6.70;;;;;;;26.64;38.94;100260.39;107820;1258;71418;-67
2023/06/09 03:15:55;;;;;;;12.40;6.60;;;;;;;26.60;39.05;100262.10;107880;1257;60374;-67
2023/06/09 03:18:28;;;;;;;10.10;6.60;;;;;;;26.66;39.03;100264.08;107857;1258;62658;-67
2023/06/09 03:21:03;;;;;;;11.60;7.20;;;;;;;26.78;38.92;100269.13;107761;1256;72613;-68
2023/06/09 03:23:34;;;;;;;14.70;6.80;;;;;;;26.78;38.93;100267.88;107852;1260;69725;-67
2023/06/09 03:26:05;;;;;;;9.70;6.90;;;;;;;26.84;38.72;100271.95;107861;1257;71447;-68
2023/06/09 03:28:33;;;;;;;13.70;7.30;;;;;;;26.99;38.61;100274.38;107822;1256;61652;-67
2023/06/09 03:31:01;;;;;;;9.80;6.90;;;;;;;26.96;38.87;100272.48;107897;1256;60006;-67
2023/06/09 03:33:29;;;;;;;11.00;7.20;;;;;;;27.25;38.23;100271.70;107729;1261;73940;-68
2023/06/09 03:35:57;;;;;;;14.10;7.10;;;;;;;27.35;38.09;100271.77;107916;1259;69933;-67
2023/06/09 03:38:26;;;;;;;9.80;6.70;;;;;;;27.35;38.23;100276.38;107881;1256;71774;-68
2023/06/09 03:40:53;;;;;;;13.70;7.40;;;;;;;27.19;38.44;100280.44;107823;1257;60946;-67
2023/06/09 03:43:21;;;;;;;11.20;7.80;;;;;;;27.11;38.62;100278.89;107873;1256;60320;-68
2023/06/09 03:45:49;;;;;;;9.80;7.00;;;;;;;27.46;38.11;100278.14;107762;1257;73826;-67
2023/06/09 03:48:17;;;;;;;9.50;6.30;;;;;;;27.78;37.60;100281.61;107660;1256;69254;-67
2023/06/09 03:50:44;;;;;;;7.90;5.80;;;;;;;27.98;37.22;100279.86;107921;1257;71352;-68
2023/06/09 03:53:12;;;;;;;11.90;7.30;;;;;;;27.97;37.24;100276.68;107858;1258;62153;-68
2023/06/09 03:55:41;;;;;;;14.10;6.60;;;;;;;27.80;37.53;100279.77;107864;1255;60265;-67
2023/06/09 03:58:12;;;;;;;14.80;6.80;;;;;;;27.88;37.66;100282.47;107953;1257;73773;-67
2023/06/09 04:00:40;;;;;;;11.50;6.70;;;;;;;28.01;37.52;100277.73;107930;1256;69544;-68
2023/06/09 04:03:08;;;;;;;11.40;6.80;;;;;;;28.14;37.41;100277.55;107896;1257;71375;-67
2023/06/09 04:05:38;;;;;;;13.10;6.40;;;;;;;28.24;37.01;100279.88;107881;1256;60461;-67
2023/06/09 04:08:06;;;;;;;11.30;6.40;;;;;;;28.45;36.79;100285.42;107735;1256;60425;-68
2023/06/09 04:10:34;;;;;;;11.60;6.80;;;;;;;28.45;36.63;100281.45;107751;1261;72607;-67
2023/06/09 04:13:05;;;;;;;11.60;7.20;;;;;;;28.52;36.66;100282.23;107873;1257;69590;-68
2023/06/09 04:15:33;;;;;;;10.60;7.00;;;;;;;28.64;36.30;100285.11;107847;1256;71912;-68
2023/06/09 04:18:01;;;;;;;14.70;6.30;;;;;;;28.90;35.79;100285.83;107718;1257;60620;-67
2023/06/09 04:20:30;;;;;;;10.90;6.60;;;;;;;28.75;35.72;100285.89;107773;1255;60355;-67
2023/06/09 04:22:58;;;;;;;11.20;6.60;;;;;;;28.74;36.01;100290.70;107884;1256;73836;-67
2023/06/09 04:25:30;;;;;;;10.20;6.30;;;;;;;28.91;35.79;100290.20;107851;1257;69685;-68
2023/06/09 04:28:04;;;;;;;10.00;6.20;;;;;;;29.04;35.43;100287.83;107958;1258;71460;-67
2023/06/09 04:30:34;;;;;;;8.50;6.30;;;;;;;29.27;35.22;100289.06;107823;1257;61709;-67
2023/06/09 04:33:03;;;;;;;11.00;6.70;;;;;;;29.59;34.58;100288.13;107880;1256;60300;-66
2023/06/09 04:35:31;;;;;;;9.80;6.10;;;;;;;30.01;33.99;100290.77;107796;1256;73785;-67
2023/06/09 04:38:03;;;;;;;14.80;6.70;;;;;;;30.20;33.50;100293.54;107996;1257;69768;-67
2023/06/09 04:40:32;;;;;;;22.70;6.40;;;;;;;30.22;33.38;100290.81;107902;1257;73040;-69
2023/06/09 04:43:01;;;;;;;17.70;6.80;;;;;;;30.21;33.45;100289.30;107879;1257;60549;-67
2023/06/09 04:45:34;;;;;;;12.10;6.00;;;;;;;30.40;33.35;100283.45;107839;1257;60886;-67
2023/06/09 04:48:21;;;;;;;13.50;6.60;;;;;;;30.81;32.65;100279.55;107896;1260;72554;-68
2023/06/09 04:50:49;;;;;;;11.00;5.90;;;;;;;30.81;32.59;100279.10;108024;1256;70059;-68
2023/06/09 04:53:19;;;;;;;14.90;6.00;;;;;;;30.40;33.12;100280.33;107722;1257;72673;-68
2023/06/09 04:55:53;;;;;;;17.20;5.80;;;;;;;30.71;32.77;100279.02;107935;1256;61213;-67
2023/06/09 04:58:23;;;;;;;12.70;7.20;;;;;;;31.10;32.09;100277.27;107996;1257;60193;-68
2023/06/09 05:00:53;;;;;;;14.30;7.40;;;;;;;31.34;31.98;100281.19;107929;1256;73885;-68
2023/06/09 05:03:23;;;;;;;12.50;6.40;;;;;;;32.05;31.03;100272.94;107865;1256;70479;-69
2023/06/09 05:05:51;;;;;;;11.30;6.60;;;;;;;31.65;31.35;100276.46;107852;1256;72717;-67
2023/06/09 05:08:19;;;;;;;8.90;5.80;;;;;;;31.63;31.46;100274.80;107976;1260;60510;-68
2023/06/09 05:10:48;;;;;;;9.10;5.50;;;;;;;31.89;31.43;100267.02;108007;1258;60256;-68
2023/06/09 05:13:16;;;;;;;13.90;6.50;;;;;;;31.98;31.10;100267.56;107848;1256;73826;-69
2023/06/09 05:15:43;;;;;;;12.10;6.00;;;;;;;32.18;31.05;100267.18;107901;1256;70149;-67
2023/06/09 05:18:11;;;;;;;6.80;5.20;;;;;;;32.40;31.01;100262.84;107984;1255;72750;-67
2023/06/09 05:20:39;;;;;;;9.80;6.40;;;;;;;33.16;29.49;100262.27;107897;1257;60322;-68
2023/06/09 05:23:08;;;;;;;10.20;5.90;;;;;;;33.16;29.92;100261.34;107944;1255;60416;-68
2023/06/09 05:25:38;;;;;;;13.00;6.70;;;;;;;33.48;29.54;100259.48;107657;1255;73913;-68
2023/06/09 05:28:05;;;;;;;11.10;6.90;;;;;;;33.82;29.13;100261.60;107800;1257;70141;-68
2023/06/09 05:30:32;;;;;;;12.90;6.90;;;;;;;34.11;28.79;100259.92;108080;1254;72228;-69
2023/06/09 05:33:00;;;;;;;12.40;6.60;;;;;;;34.08;28.71;100259.91;108002;1254;60414;-68
2023/06/09 05:35:27;;;;;;;11.10;6.70;;;;;;;34.09;28.65;100256.13;108101;1253;62366;-68
2023/06/09 05:37:59;;;;;;;16.90;6.60;;;;;;;34.16;28.72;100259.55;108170;1253;65010;-68
2023/06/09 05:40:28;;;;;;;14.80;7.20;;;;;;;34.39;28.44;100263.75;108071;1254;61435;-68
2023/06/09 05:42:58;;;;;;;11.40;6.00;;;;;;;34.58;28.13;100257.61;108210;1253;71351;-68
2023/06/09 05:45:25;;;;;;;10.20;6.10;;;;;;;34.82;27.76;100256.27;108166;1253;60206;-68
2023/06/09 05:47:53;;;;;;;8.80;5.90;;;;;;;34.91;27.74;100256.04;108157;1253;60309;-69
2023/06/09 05:50:20;;;;;;;11.70;6.10;;;;;;;35.28;27.53;100257.52;108176;1253;64910;-69
2023/06/09 05:52:48;;;;;;;8.00;5.40;;;;;;;35.53;27.01;100258.48;108182;1253;61339;-69
2023/06/09 05:55:18;;;;;;;10.70;5.80;;;;;;;35.62;27.06;100262.88;108123;1254;63439;-67
2023/06/09 05:57:45;;;;;;;17.10;6.20;;;;;;;35.62;27.17;100260.11;108230;1256;60402;-68
2023/06/09 06:00:13;;;;;;;14.20;6.30;;;;;;;35.62;27.05;100257.79;108410;1254;61896;-68
2023/06/09 06:02:44;;;;;;;11.10;5.60;;;;;;;35.61;27.12;100257.53;108200;1254;64974;-68
2023/06/09 06:05:14;;;;;;;17.80;6.00;;;;;;;35.92;26.44;100258.26;108272;1254;63373;-68
2023/06/09 06:07:42;;;;;;;19.90;6.90;;;;;;;36.30;26.38;100256.02;108194;1254;63768;-68
2023/06/09 06:10:09;;;;;;;11.80;6.00;;;;;;;36.52;26.30;100250.78;108267;1253;59577;-69
2023/06/09 06:12:38;;;;;;;13.80;6.00;;;;;;;36.81;25.76;100252.55;108198;1256;60591;-68
2023/06/09 06:15:05;;;;;;;8.90;5.30;;;;;;;36.75;25.26;100251.93;108237;1254;63643;-68
2023/06/09 06:17:33;;;;;;;10.80;5.10;;;;;;;37.10;25.13;100251.64;108150;1254;61329;-68
2023/06/09 06:20:06;;;;;;;7.30;5.00;;;;;;;37.66;24.17;100254.55;108116;1254;63714;-68
2023/06/09 06:22:37;;;;;;;12.70;5.80;;;;;;;38.10;23.71;100254.71;108164;1254;60391;-68
2023/06/09 06:25:04;;;;;;;11.10;5.60;;;;;;;38.46;23.44;100259.28;108173;1252;60389;-68
2023/06/09 06:27:35;;;;;;;12.00;5.40;;;;;;;38.85;23.33;100253.27;108184;1254;63674;-68
2023/06/09 06:30:03;;;;;;;7.10;5.10;;;;;;;39.14;22.69;100248.50;108034;1253;61397;-69
2023/06/09 06:32:50;;;;;;;9.30;4.20;;;;;;;39.19;22.18;100249.60;108143;1254;63688;-68
2023/06/09 06:35:36;;;;;;;11.70;5.00;;;;;;;38.84;22.34;100250.41;108044;1257;60389;-68
2023/06/09 06:38:03;;;;;;;11.00;4.50;;;;;;;38.37;22.70;100253.71;108112;1252;60427;-68
2023/06/09 06:40:33;;;;;;;12.10;4.50;;;;;;;37.99;22.74;100255.97;108113;1254;63683;-68
2023/06/09 06:43:01;;;;;;;10.80;4.60;;;;;;;37.78;23.08;100257.20;108131;1253;61402;-69
2023/06/09 06:45:47;;;;;;;12.40;4.90;;;;;;;37.93;22.81;100256.52;108112;1254;62439;-68
2023/06/09 06:48:16;;;;;;;15.20;5.10;;;;;;;38.28;22.59;100258.59;108151;1254;60373;-69
2023/06/09 06:50:44;;;;;;;8.80;5.00;;;;;;;38.37;22.73;100256.96;108252;1254;60392;-68
2023/06/09 06:53:11;;;;;;;12.60;4.90;;;;;;;38.33;22.71;100256.43;108166;1256;63664;-69
2023/06/09 06:55:41;;;;;;;14.10;5.30;;;;;;;38.25;22.90;100260.71;108233;1254;60362;-69
2023/06/09 06:58:18;;;;;;;9.50;4.90;;;;;;;38.22;22.88;100260.75;108167;1252;63738;-68
2023/06/09 07:00:46;;;;;;;11.80;5.50;;;;;;;38.26;23.20;100259.76;108168;1254;60533;-68
2023/06/09 07:03:24;;;;;;;13.70;5.00;;;;;;;38.29;23.09;100256.25;108162;1254;60446;-68
2023/06/09 07:05:53;;;;;;;11.60;5.00;;;;;;;38.39;22.75;100256.55;108194;1253;64859;-68
2023/06/09 07:08:20;;;;;;;9.90;4.00;;;;;;;38.37;22.65;100254.38;108129;1256;60447;-70
2023/06/09 07:10:48;;;;;;;11.50;4.60;;;;;;;38.29;22.37;100252.95;108156;1256;63704;-67
2023/06/09 07:13:16;;;;;;;14.30;5.00;;;;;;;38.13;22.63;100246.56;108132;1256;60568;-68
2023/06/09 07:15:43;;;;;;;9.10;5.00;;;;;;;38.15;22.83;100245.73;108153;1254;60459;-69
2023/06/09 07:18:11;;;;;;;13.90;5.10;;;;;;;38.03;23.06;100245.10;108138;1256;65473;-68
2023/06/09 07:20:38;;;;;;;10.90;4.70;;;;;;;38.17;22.77;100248.81;108033;1255;61508;-68
2023/06/09 07:23:08;;;;;;;8.20;4.50;;;;;;;38.31;22.77;100246.09;108137;1253;62992;-69
2023/06/09 07:25:38;;;;;;;10.00;4.60;;;;;;;38.55;22.45;100244.83;108208;1253;59197;-68
2023/06/09 07:28:05;;;;;;;9.60;4.60;;;;;;;39.00;21.80;100240.52;108307;1253;60315;-68
2023/06/09 07:30:33;;;;;;;9.90;5.00;;;;;;;38.90;21.33;100241.08;108175;1254;65132;-68
2023/06/09 07:33:00;;;;;;;16.30;5.20;;;;;;;39.00;21.42;100242.63;108176;1254;60430;-69
2023/06/09 07:35:29;;;;;;;9.80;4.80;;;;;;;39.44;21.19;100240.45;108139;1254;64004;-69
2023/06/09 07:38:00;;;;;;;9.80;4.90;;;;;;;39.64;20.50;100243.38;108162;1253;60488;-69
2023/06/09 07:40:28;;;;;;;10.70;4.60;;;;;;;39.49;20.17;100244.13;108215;1254;60439;-69
2023/06/09 07:42:59;;;;;;;18.90;5.10;;;;;;;39.56;20.35;100245.16;108153;1252;63900;-69
2023/06/09 07:45:27;;;;;;;10.30;4.40;;;;;;;39.83;20.39;100241.93;108046;1259;61573;-69
2023/06/09 07:47:55;;;;;;;9.50;4.70;;;;;;;40.49;19.80;100243.42;108159;1254;64074;-69
2023/06/09 07:50:27;;;;;;;17.90;4.80;;;;;;;40.23;18.85;100242.54;108212;1253;60449;-69
2023/06/09 07:52:58;;;;;;;9.60;4.80;;;;;;;39.83;18.87;100246.17;108119;1254;60303;-70
2023/06/09 07:55:27;;;;;;;14.10;4.30;;;;;;;39.60;19.08;100244.07;108255;1255;65000;-69
2023/06/09 07:57:55;;;;;;;8.10;4.40;;;;;;;39.60;19.35;100246.17;108348;1254;61971;-70
2023/06/09 08:00:22;;;;;;;11.90;4.70;;;;;;;40.25;18.84;100245.71;108239;1254;62556;-70
2023/06/09 08:03:02;;;;;;;12.20;5.10;;;;;;;40.69;18.78;100247.45;108214;1254;60309;-69
2023/06/09 08:05:32;;;;;;;13.40;5.10;;;;;;;40.96;19.03;100242.54;108204;1252;60505;-69
2023/06/09 08:08:03;;;;;;;6.90;4.60;;;;;;;41.14;19.21;100246.12;108222;1253;63785;-68
2023/06/09 08:10:31;;;;;;;13.20;5.00;;;;;;;40.87;19.32;100241.70;108035;1253;187777;-69
2023/06/09 08:13:58;;;;;;;13.00;5.20;;;;;;;38.57;21.52;100245.95;104921;1290;600976;-69
2023/06/09 08:16:26;;;;;;;8.90;5.20;;;;;;;39.94;19.95;100246.10;107311;1264;59484;-69
2023/06/09 08:18:54;;;;;;;11.10;4.80;;;;;;;40.67;19.51;100241.10;107333;1264;59219;-71
2023/06/09 08:21:29;;;;;;;12.70;5.20;;;;;;;41.16;18.86;100240.19;107303;1264;63343;-70
2023/06/09 08:23:58;;;;;;;11.20;4.20;;;;;;;41.19;18.17;100243.09;107346;1264;61423;-69
2023/06/09 08:26:26;;;;;;;12.50;4.10;;;;;;;40.84;18.11;100244.69;107182;1264;179122;-70
2023/06/09 08:28:58;;;;;;;10.10;4.50;;;;;;;40.61;18.12;100245.71;108328;1252;59112;-70
2023/06/09 08:31:29;;;;;;;8.80;4.30;;;;;;;40.77;17.37;100243.66;108330;1250;59242;-69
2023/06/09 08:33:57;;;;;;;7.40;4.00;;;;;;;41.29;17.30;100239.30;108360;1251;63325;-69
2023/06/09 08:36:25;;;;;;;8.90;4.50;;;;;;;41.40;17.19;100240.15;108379;1256;60082;-70
2023/06/09 08:38:52;;;;;;;9.60;4.30;;;;;;;41.87;16.80;100239.52;108340;1250;63710;-70
2023/06/09 08:41:22;;;;;;;7.20;4.80;;;;;;;42.28;16.10;100237.92;108311;1255;59662;-70
2023/06/09 08:43:52;;;;;;;7.20;3.90;;;;;;;42.51;15.95;100236.70;108337;1255;59150;-70
2023/06/09 08:46:19;;;;;;;9.90;4.60;;;;;;;43.18;15.54;100231.17;108263;1257;64145;-70
2023/06/09 08:48:56;;;;;;;12.80;4.60;;;;;;;43.72;15.45;100231.77;108266;1251;61334;-69
2023/06/09 08:51:25;;;;;;;13.00;4.60;;;;;;;43.62;15.46;100231.17;108254;1251;62660;-69
2023/06/09 08:53:52;;;;;;;8.50;3.90;;;;;;;43.03;15.51;100232.08;108279;1251;59598;-69
2023/06/09 08:56:21;;;;;;;7.60;4.20;;;;;;;42.82;15.76;100234.14;108295;1250;59615;-69
2023/06/09 08:58:50;;;;;;;7.30;3.80;;;;;;;43.00;15.80;100230.98;108368;1250;62808;-70
2023/06/09 09:01:18;;;;;;;6.30;4.30;;;;;;;43.28;15.64;100224.84;108377;1250;60232;-70
2023/06/09 09:03:46;;;;;;;7.60;3.90;;;;;;;43.17;15.48;100223.80;108293;1254;63800;-70
2023/06/09 09:06:19;;;;;;;6.30;3.30;;;;;;;43.43;15.41;100223.30;108332;1251;59618;-70
2023/06/09 09:08:47;;;;;;;5.90;3.30;;;;;;;43.50;14.37;100226.48;108309;1251;59673;-70
2023/06/09 09:11:14;;;;;;;5.50;3.30;;;;;;;43.22;14.39;100222.39;108331;1251;64098;-69
2023/06/09 09:13:41;;;;;;;6.70;3.60;;;;;;;43.33;14.17;100219.39;108380;1251;60109;-70
2023/06/09 09:16:15;;;;;;;6.20;3.00;;;;;;;43.31;14.29;100217.44;108413;1251;63712;-69
2023/06/09 09:18:48;;;;;;;7.30;2.60;;;;;;;43.40;13.67;100215.33;108373;1251;59755;-70
2023/06/09 09:21:22;;;;;;;5.50;2.90;;;;;;;42.97;13.94;100214.89;108361;1251;59330;-70
2023/06/09 09:23:57;;;;;;;5.30;3.00;;;;;;;43.67;13.60;100212.11;108412;1251;64948;-70
2023/06/09 09:26:28;;;;;;;7.80;3.40;;;;;;;43.94;13.43;100211.16;108343;1251;61429;-71
2023/06/09 09:29:05;;;;;;;5.50;2.60;;;;;;;44.21;13.14;100211.73;108369;1257;62496;-71
2023/06/09 09:31:33;;;;;;;5.70;3.20;;;;;;;43.30;13.45;100209.83;108279;1251;59572;-70
2023/06/09 09:34:03;;;;;;;5.20;3.20;;;;;;;42.87;13.81;100208.08;108268;1256;59556;-70
2023/06/09 09:36:33;;;;;;;6.10;3.30;;;;;;;42.74;14.05;100202.95;108253;1251;64166;-70
2023/06/09 09:39:06;;;;;;;8.90;3.30;;;;;;;42.92;14.12;100202.50;108284;1250;61311;-70
2023/06/09 09:41:33;;;;;;;6.90;3.50;;;;;;;43.44;13.90;100204.29;108284;1252;63749;-70
2023/06/09 09:44:01;;;;;;;7.90;3.50;;;;;;;43.28;14.05;100203.45;108295;1251;59502;-68
2023/06/09 09:46:37;;;;;;;7.00;3.40;;;;;;;43.36;14.07;100198.45;108287;1251;59343;-69
2023/06/09 09:49:07;;;;;;;6.60;3.50;;;;;;;43.94;13.90;100194.95;108268;1251;64184;-69
2023/06/09 09:51:37;;;;;;;10.60;3.60;;;;;;;44.53;13.62;100195.27;108297;1251;61613;-71
2023/06/09 09:54:05;;;;;;;7.00;3.20;;;;;;;44.95;13.16;100192.34;108203;1251;62489;-69
2023/06/09 09:56:32;;;;;;;9.20;4.10;;;;;;;45.42;13.03;100192.02;108283;1251;60057;-68
2023/06/09 09:59:02;;;;;;;9.20;3.60;;;;;;;45.86;12.62;100196.94;108199;1258;59376;-68
2023/06/09 10:01:29;;;;;;;5.50;3.40;;;;;;;45.86;12.40;100193.10;108230;1251;64519;-69
2023/06/09 10:03:57;;;;;;;8.20;3.20;;;;;;;45.52;12.42;100189.19;108151;1251;60395;-68
2023/06/09 10:06:27;;;;;;;6.70;3.10;;;;;;;45.19;12.65;100187.36;108254;1251;62434;-69
2023/06/09 10:08:57;;;;;;;8.20;3.60;;;;;;;44.90;13.09;100184.75;108183;1251;62394;-68
2023/06/09 10:11:29;;;;;;;10.40;3.10;;;;;;;44.60;13.28;100183.92;108214;1251;59516;-69
2023/06/09 10:13:57;;;;;;;;;;;;;;;43.77;13.68;100183.57;108296;1251;64146;-69
2023/06/09 10:16:28;;;;;;;6.50;2.90;;;;;;;43.15;13.87;100177.08;108251;1254;60117;-68
2023/06/09 10:18:55;;;;;;;8.30;3.40;;;;;;;42.99;14.05;100173.85;108249;1251;63767;-69
2023/06/09 10:21:26;;;;;;;7.30;3.20;;;;;;;43.44;14.19;100172.17;108112;1259;59509;-69
2023/06/09 10:23:53;;;;;;;14.70;3.60;;;;;;;43.59;13.93;100174.94;108100;1251;59519;-69
2023/06/09 10:26:23;;;;;;;7.40;3.30;;;;;;;43.00;13.58;100172.39;108090;1251;63972;-68
2023/06/09 10:28:51;;;;;;;15.70;2.90;;;;;;;41.71;14.44;100169.68;108240;1251;60184;-68
2023/06/09 10:31:18;;;;;;;6.40;3.40;;;;;;;41.71;14.59;100170.52;108290;1251;63783;-69
2023/06/09 10:33:51;;;;;;;12.40;3.40;;;;;;;42.25;14.15;100166.80;108108;1251;59470;-70
2023/06/09 10:36:18;;;;;;;10.70;2.90;;;;;;;42.64;14.22;100162.80;108299;1250;59590;-69
2023/06/09 10:38:53;;;;;;;8.00;2.80;;;;;;;42.80;13.90;100157.75;108295;1251;62836;-68
2023/06/09 10:41:27;;;;;;;5.40;3.30;;;;;;;42.48;14.05;100152.45;108375;1256;61487;-69
2023/06/09 10:44:01;;;;;;;8.50;3.50;;;;;;;42.03;14.42;100155.34;108354;1253;63746;-69
2023/06/09 10:46:49;;;;;;;12.30;3.10;;;;;;;41.70;14.24;100149.45;108274;1253;59602;-70
2023/06/09 10:49:26;;;;;;;9.30;3.20;;;;;;;41.45;14.62;100149.19;108329;1251;59334;-69
2023/06/09 10:51:53;;;;;;;7.70;3.20;;;;;;;41.28;15.00;100142.80;108342;1252;62878;-68
2023/06/09 10:54:25;;;;;;;5.20;3.00;;;;;;;40.83;15.28;100140.48;108234;1250;60213;-69
2023/06/09 10:56:53;;;;;;;8.70;3.10;;;;;;;41.19;15.17;100143.58;108443;1251;62438;-69
2023/06/09 10:59:24;;;;;;;4.70;3.00;;;;;;;41.08;15.01;100145.61;108389;1256;59589;-69
2023/06/09 11:02:03;;;;;;;7.80;3.00;;;;;;;41.27;14.69;100141.20;108369;1251;59346;-69
2023/06/09 11:04:39;;;;;;;8.70;3.10;;;;;;;41.66;14.66;100138.90;108379;1251;63462;-68
2023/06/09 11:07:12;;;;;;;7.50;3.20;;;;;;;41.70;14.43;100134.52;108440;1251;61361;-69
2023/06/09 11:09:59;;;;;;;6.70;3.00;;;;;;;41.66;14.98;100131.94;108369;1253;62479;-68
2023/06/09 11:12:43;;;;;;;6.20;2.70;;;;;;;41.69;14.96;100122.39;108388;1251;59541;-69
2023/06/09 11:15:29;;;;;;;4.70;2.60;;;;;;;42.13;14.44;100125.09;108320;1251;59333;-69
2023/06/09 11:17:59;;;;;;;4.20;2.80;;;;;;;41.74;14.16;100125.69;108356;1251;64140;-69
2023/06/09 11:20:32;;;;;;;9.40;3.40;;;;;;;41.69;14.31;100118.84;108333;1257;61322;-69
2023/06/09 11:23:04;;;;;;;6.10;2.90;;;;;;;42.25;14.07;100112.75;108353;1251;63890;-69
2023/06/09 11:25:33;;;;;;;10.10;3.30;;;;;;;42.64;13.78;100108.88;108335;1251;59113;-69